createdAt,value
2019-01-11T00:00:53.158Z,101470.47
2019-01-11T00:03:20.656Z,101472.41
2019-01-11T00:05:48.243Z,101468.84
2019-01-11T00:08:15.776Z,101463.13
2019-01-11T00:10:43.352Z,101466.11
2019-01-11T00:13:10.893Z,101458.64
2019-01-11T00:15:38.853Z,101466.20
2019-01-11T00:18:06.382Z,101462.85
2019-01-11T00:20:33.914Z,101462.59
2019-01-11T00:23:01.412Z,101466.06
2019-01-11T00:25:28.946Z,101465.06
2019-01-11T00:27:56.483Z,101461.10
2019-01-11T00:30:23.984Z,101457.75
2019-01-11T00:32:51.492Z,101458.50
2019-01-11T00:35:19.020Z,101462.20
2019-01-11T00:37:46.535Z,101462.58
2019-01-11T00:40:14.068Z,101462.58
2019-01-11T00:42:41.573Z,101466.53
2019-01-11T00:45:09.857Z,101461.96
2019-01-11T00:47:37.387Z,101464.69
2019-01-11T00:50:06.258Z,101466.53
2019-01-11T00:52:33.796Z,101466.05
2019-01-11T00:55:01.861Z,101460.08
2019-01-11T00:57:29.408Z,101455.14
2019-01-11T00:59:56.906Z,101453.27
2019-01-11T01:02:24.467Z,101455.50
2019-01-11T01:04:51.987Z,101454.14
2019-01-11T01:07:19.513Z,101452.91
2019-01-11T01:09:47.312Z,101458.58
2019-01-11T01:12:14.835Z,101453.27
2019-01-11T01:14:42.325Z,101452.28
2019-01-11T01:17:09.878Z,101457.73
2019-01-11T01:19:37.382Z,101466.75
2019-01-11T01:22:04.986Z,101463.55
2019-01-11T01:24:32.525Z,101470.49
2019-01-11T01:27:00.041Z,101470.84
2019-01-11T01:29:27.563Z,101464.55
2019-01-11T01:31:55.077Z,101469.48
2019-01-11T01:34:22.603Z,101464.30
2019-01-11T01:36:50.141Z,101469.62
2019-01-11T01:39:17.645Z,101470.00
2019-01-11T01:41:45.191Z,101465.92
2019-01-11T01:44:12.782Z,101461.69
2019-01-11T01:46:40.307Z,101457.95
2019-01-11T01:49:07.821Z,101460.59
2019-01-11T01:51:35.356Z,101467.28
2019-01-11T01:54:02.851Z,101468.99
2019-01-11T01:56:30.388Z,101475.32
2019-01-11T01:58:57.895Z,101473.57
2019-01-11T02:01:25.415Z,101476.16
2019-01-11T02:03:52.927Z,101480.91
2019-01-11T02:06:20.462Z,101478.67
2019-01-11T02:08:48.001Z,101471.98
2019-01-11T02:11:15.505Z,101465.92
2019-01-11T02:13:43.002Z,101473.57
2019-01-11T02:16:10.522Z,101465.39
2019-01-11T02:18:38.216Z,101462.06
2019-01-11T02:21:05.715Z,101461.96
2019-01-11T02:23:33.216Z,101459.09
2019-01-11T02:26:00.741Z,101456.86
2019-01-11T02:28:28.239Z,101448.33
2019-01-11T02:30:55.758Z,101460.59
2019-01-11T02:33:24.974Z,101453.39
2019-01-11T02:35:52.510Z,101455.14
2019-01-11T02:38:20.028Z,101450.53
2019-01-11T02:40:47.711Z,101451.68
2019-01-11T02:43:15.243Z,101455.25
2019-01-11T02:45:42.784Z,101448.44
2019-01-11T02:48:10.291Z,101454.41
2019-01-11T02:50:37.806Z,101445.70
2019-01-11T02:53:05.323Z,101447.59
2019-01-11T02:55:32.831Z,101442.28
2019-01-11T02:58:00.352Z,101437.17
2019-01-11T03:00:27.853Z,101435.07
2019-01-11T03:02:55.393Z,101436.82
2019-01-11T03:05:22.914Z,101435.95
2019-01-11T03:07:50.403Z,101428.12
2019-01-11T03:10:18.803Z,101428.78
2019-01-11T03:12:46.324Z,101430.01
2019-01-11T03:15:14.286Z,101433.22
2019-01-11T03:17:41.885Z,101437.31
2019-01-11T03:20:10.531Z,101431.13
2019-01-11T03:22:38.063Z,101423.81
2019-01-11T03:25:06.672Z,101427.28
2019-01-11T03:27:34.169Z,101429.41
2019-01-11T03:30:01.700Z,101429.54
2019-01-11T03:32:29.304Z,101425.80
2019-01-11T03:35:01.391Z,101423.47
2019-01-11T03:37:28.909Z,101429.76
2019-01-11T03:39:56.400Z,101433.22
2019-01-11T03:42:23.933Z,101426.68
2019-01-11T03:44:51.454Z,101428.64
2019-01-11T03:47:18.986Z,101428.92
2019-01-11T03:49:46.504Z,101435.21
2019-01-11T03:52:14.012Z,101428.78
2019-01-11T03:54:41.524Z,101427.77
2019-01-11T03:57:09.069Z,101430.50
2019-01-11T03:59:36.577Z,101428.64
2019-01-11T04:02:04.107Z,101435.95
2019-01-11T04:04:31.633Z,101432.22
2019-01-11T04:06:59.137Z,101425.27
2019-01-11T04:09:26.622Z,101427.63
2019-01-11T04:11:54.201Z,101421.83
2019-01-11T04:14:21.715Z,101428.12
2019-01-11T04:16:49.256Z,101434.94
2019-01-11T04:19:16.926Z,101434.45
2019-01-11T04:21:46.121Z,101430.36
2019-01-11T04:24:13.614Z,101423.69
2019-01-11T04:26:41.216Z,101425.40
2019-01-11T04:29:08.795Z,101421.31
2019-01-11T04:31:36.291Z,101427.28
2019-01-11T04:34:03.810Z,101425.05
2019-01-11T04:36:31.343Z,101427.91
2019-01-11T04:38:58.844Z,101427.42
2019-01-11T04:41:26.388Z,101426.89
2019-01-11T04:43:53.891Z,101435.95
2019-01-11T04:46:21.426Z,101437.31
2019-01-11T04:48:48.917Z,101440.04
2019-01-11T04:51:16.448Z,101438.67
2019-01-11T04:53:43.950Z,101438.67
2019-01-11T04:56:11.475Z,101443.64
2019-01-11T04:58:38.985Z,101444.13
2019-01-11T05:01:06.550Z,101430.98
2019-01-11T05:03:34.067Z,101431.86
2019-01-11T05:06:01.603Z,101436.08
2019-01-11T05:08:29.116Z,101431.86
2019-01-11T05:10:56.616Z,101425.05
2019-01-11T05:13:25.784Z,101425.53
2019-01-11T05:15:53.281Z,101427.42
2019-01-11T05:18:20.811Z,101422.10
2019-01-11T05:20:48.330Z,101424.69
2019-01-11T05:23:15.842Z,101429.13
2019-01-11T05:25:43.372Z,101426.76
2019-01-11T05:28:10.864Z,101425.67
2019-01-11T05:30:38.392Z,101428.78
2019-01-11T05:33:05.905Z,101426.05
2019-01-11T05:35:33.408Z,101428.64
2019-01-11T05:38:00.934Z,101426.41
2019-01-11T05:40:28.498Z,101430.01
2019-01-11T05:42:56.038Z,101430.01
2019-01-11T05:45:23.912Z,101431.86
2019-01-11T05:47:51.449Z,101426.76
2019-01-11T05:50:24.063Z,101425.53
2019-01-11T05:52:48.232Z,101430.98
2019-01-11T05:55:17.380Z,101427.42
2019-01-11T05:57:52.486Z,101425.05
2019-01-11T06:00:19.996Z,101430.85
2019-01-11T06:02:47.494Z,101428.64
2019-01-11T06:05:15.029Z,101429.48
2019-01-11T06:07:44.171Z,101423.69
2019-01-11T06:10:12.773Z,101425.40
2019-01-11T06:12:40.286Z,101418.09
2019-01-11T06:15:07.808Z,101418.23
2019-01-11T06:17:35.306Z,101415.86
2019-01-11T06:20:02.834Z,101410.93
2019-01-11T06:22:30.330Z,101409.05
2019-01-11T06:24:57.872Z,101407.69
2019-01-11T06:27:25.396Z,101411.41
2019-01-11T06:29:52.914Z,101417.36
2019-01-11T06:32:20.418Z,101419.95
2019-01-11T06:34:47.935Z,101418.23
2019-01-11T06:37:15.466Z,101421.31
2019-01-11T06:39:42.996Z,101426.89
2019-01-11T06:42:12.158Z,101427.03
2019-01-11T06:44:39.708Z,101427.77
2019-01-11T06:47:07.234Z,101425.53
2019-01-11T06:49:34.754Z,101426.41
2019-01-11T06:52:02.255Z,101429.48
2019-01-11T06:54:29.898Z,101426.05
2019-01-11T06:56:57.404Z,101422.45
2019-01-11T06:59:24.942Z,101422.32
2019-01-11T07:01:52.497Z,101422.32
2019-01-11T07:04:20.020Z,101418.72
2019-01-11T07:06:47.510Z,101419.87
2019-01-11T07:09:15.064Z,101417.49
2019-01-11T07:11:42.638Z,101424.96
2019-01-11T07:14:10.135Z,101423.22
2019-01-11T07:16:37.656Z,101424.44
2019-01-11T07:19:05.162Z,101424.09
2019-01-11T07:21:32.687Z,101422.19
2019-01-11T07:24:00.211Z,101409.18
2019-01-11T07:26:27.822Z,101409.70
2019-01-11T07:28:55.347Z,101413.38
2019-01-11T07:31:23.848Z,101416.33
2019-01-11T07:33:51.352Z,101411.26
2019-01-11T07:36:20.543Z,101406.44
2019-01-11T07:38:48.027Z,101411.14
2019-01-11T07:41:15.546Z,101418.34
2019-01-11T07:43:43.073Z,101413.88
2019-01-11T07:46:10.571Z,101412.89
2019-01-11T07:48:38.097Z,101413.88
2019-01-11T07:51:05.621Z,101416.19
2019-01-11T07:53:33.172Z,101414.94
2019-01-11T07:56:00.667Z,101408.61
2019-01-11T07:58:28.198Z,101410.38
2019-01-11T08:00:55.694Z,101409.78
2019-01-11T08:03:23.208Z,101407.31
2019-01-11T08:05:50.722Z,101409.38
2019-01-11T08:08:18.239Z,101409.63
2019-01-11T08:10:45.751Z,101404.52
2019-01-11T08:13:13.281Z,101416.52
2019-01-11T08:15:40.856Z,101410.44
2019-01-11T08:18:08.400Z,101415.89
2019-01-11T08:20:35.891Z,101421.20
2019-01-11T08:23:03.418Z,101425.52
2019-01-11T08:25:30.956Z,101425.87
2019-01-11T08:27:58.445Z,101427.13
2019-01-11T08:30:25.947Z,101424.02
2019-01-11T08:32:53.479Z,101423.39
2019-01-11T08:35:21.073Z,101425.23
2019-01-11T08:37:48.643Z,101418.34
2019-01-11T08:40:16.139Z,101417.47
2019-01-11T08:42:43.976Z,101412.23
2019-01-11T08:45:12.489Z,101415.97
2019-01-11T08:47:40.067Z,101403.16
2019-01-11T08:50:09.208Z,101400.52
2019-01-11T08:52:36.712Z,101391.08
2019-01-11T08:55:04.815Z,101399.34
2019-01-11T08:57:32.307Z,101407.58
2019-01-11T08:59:59.842Z,101413.73
2019-01-11T09:02:27.379Z,101403.54
2019-01-11T09:04:54.925Z,101401.22
2019-01-11T09:07:22.431Z,101394.62
2019-01-11T09:09:49.925Z,101400.23
2019-01-11T09:12:17.473Z,101401.09
2019-01-11T09:14:46.620Z,101405.42
2019-01-11T09:17:14.363Z,101410.88
2019-01-11T09:19:41.922Z,101404.80
2019-01-11T09:22:09.421Z,101397.98
2019-01-11T09:24:36.961Z,101405.55
2019-01-11T09:27:04.451Z,101407.05
2019-01-11T09:29:32.042Z,101402.20
2019-01-11T09:31:59.682Z,101404.52
2019-01-11T09:34:27.225Z,101399.45
2019-01-11T09:36:54.799Z,101393.56
2019-01-11T09:39:22.302Z,101398.52
2019-01-11T09:41:49.829Z,101397.00
2019-01-11T09:44:17.333Z,101398.08
2019-01-11T09:46:44.859Z,101389.24
2019-01-11T09:49:12.399Z,101380.36
2019-01-11T09:51:39.955Z,101382.21
2019-01-11T09:54:07.469Z,101383.09
2019-01-11T09:56:35.003Z,101392.49
2019-01-11T09:59:02.600Z,101398.44
2019-01-11T10:01:30.249Z,101397.07
2019-01-11T10:03:57.745Z,101389.48
2019-01-11T10:06:25.265Z,101388.69
2019-01-11T10:08:52.791Z,101393.06
2019-01-11T10:11:20.299Z,101393.33
2019-01-11T10:13:47.857Z,101394.20
2019-01-11T10:16:15.352Z,101390.33
2019-01-11T10:18:42.892Z,101390.58
2019-01-11T10:21:10.393Z,101376.69
2019-01-11T10:23:37.917Z,101382.67
2019-01-11T10:26:06.197Z,101378.72
2019-01-11T10:28:33.729Z,101374.48
2019-01-11T10:31:01.223Z,101377.08
2019-01-11T10:33:28.727Z,101370.40
2019-01-11T10:35:56.262Z,101362.56
2019-01-11T10:38:23.766Z,101371.03
2019-01-11T10:40:51.315Z,101368.90
2019-01-11T10:43:18.843Z,101354.80
2019-01-11T10:45:46.395Z,101358.76
2019-01-11T10:48:13.914Z,101357.88
2019-01-11T10:50:41.431Z,101351.06
2019-01-11T10:53:08.923Z,101360.89
2019-01-11T10:55:36.441Z,101353.50
2019-01-11T10:58:04.110Z,101359.80
2019-01-11T11:00:31.695Z,101367.70
2019-01-11T11:02:59.195Z,101366.94
2019-01-11T11:05:26.806Z,101358.02
2019-01-11T11:07:54.326Z,101358.27
2019-01-11T11:10:21.834Z,101360.47
2019-01-11T11:12:49.523Z,101356.52
2019-01-11T11:15:17.399Z,101346.48
2019-01-11T11:17:45.201Z,101347.36
2019-01-11T11:20:13.802Z,101346.77
2019-01-11T11:22:41.285Z,101337.01
2019-01-11T11:25:10.000Z,101332.39
2019-01-11T11:27:37.531Z,101336.73
2019-01-11T11:30:06.514Z,101340.02
2019-01-11T11:32:35.691Z,101333.34
2019-01-11T11:35:03.196Z,101321.06
2019-01-11T11:37:30.722Z,101312.05
2019-01-11T11:39:58.258Z,101318.34
2019-01-11T11:42:25.755Z,101315.34
2019-01-11T11:44:53.266Z,101309.42
2019-01-11T11:47:20.814Z,101303.23
2019-01-11T11:49:48.345Z,101289.61
2019-01-11T11:52:15.858Z,101289.33
2019-01-11T11:54:43.382Z,101291.78
2019-01-11T11:57:10.904Z,101294.36
2019-01-11T11:59:38.419Z,101297.82
2019-01-11T12:02:05.950Z,101295.23
2019-01-11T12:04:33.455Z,101294.08
2019-01-11T12:07:00.974Z,101287.65
2019-01-11T12:09:28.476Z,101289.50
2019-01-11T12:11:56.007Z,101285.63
2019-01-11T12:14:23.500Z,101279.09
2019-01-11T12:16:51.019Z,101272.20
2019-01-11T12:19:18.525Z,101264.51
2019-01-11T12:21:47.824Z,101265.59
2019-01-11T12:24:15.330Z,101268.56
2019-01-11T12:26:42.838Z,101260.91
2019-01-11T12:29:10.594Z,101267.48
2019-01-11T12:31:38.122Z,101256.19
2019-01-11T12:34:05.660Z,101263.39
2019-01-11T12:36:33.189Z,101262.38
2019-01-11T12:39:00.702Z,101265.98
2019-01-11T12:41:28.203Z,101264.81
2019-01-11T12:43:55.728Z,101259.95
2019-01-11T12:46:23.227Z,101255.13
2019-01-11T12:48:50.716Z,101246.33
2019-01-11T12:51:18.184Z,101242.94
2019-01-11T12:53:45.726Z,101251.19
2019-01-11T12:56:13.225Z,101253.91
2019-01-11T12:58:40.744Z,101244.37
2019-01-11T13:01:08.242Z,101244.58
2019-01-11T13:03:35.769Z,101243.73
2019-01-11T13:06:03.276Z,101240.28
2019-01-11T13:08:30.798Z,101233.17
2019-01-11T13:10:58.300Z,101226.99
2019-01-11T13:13:25.953Z,101231.47
2019-01-11T13:15:53.446Z,101231.32
2019-01-11T13:18:20.946Z,101232.89
2019-01-11T13:20:48.469Z,101233.03
2019-01-11T13:23:16.010Z,101237.27
2019-01-11T13:25:43.533Z,101232.73
2019-01-11T13:28:11.036Z,101236.33
2019-01-11T13:30:38.542Z,101234.83
2019-01-11T13:33:06.064Z,101239.99
2019-01-11T13:35:33.838Z,101231.47
2019-01-11T13:38:01.374Z,101231.22
2019-01-11T13:40:28.870Z,101230.59
2019-01-11T13:42:56.384Z,101225.48
2019-01-11T13:45:23.916Z,101230.94
2019-01-11T13:47:51.430Z,101227.23
2019-01-11T13:50:20.638Z,101231.95
2019-01-11T13:52:48.132Z,101233.25
2019-01-11T13:55:15.635Z,101237.27
2019-01-11T13:57:43.155Z,101238.14
2019-01-11T14:00:12.288Z,101233.67
2019-01-11T14:02:39.834Z,101230.80
2019-01-11T14:05:07.325Z,101224.50
2019-01-11T14:07:34.872Z,101230.66
2019-01-11T14:10:02.403Z,101231.81
2019-01-11T14:12:29.899Z,101235.55
2019-01-11T14:14:57.451Z,101234.60
2019-01-11T14:17:24.950Z,101235.48
2019-01-11T14:19:52.471Z,101239.22
2019-01-11T14:22:19.988Z,101232.11
2019-01-11T14:24:47.502Z,101236.20
2019-01-11T14:27:15.002Z,101234.32
2019-01-11T14:29:42.541Z,101233.83
2019-01-11T14:32:10.049Z,101252.64
2019-01-11T14:34:37.560Z,101255.74
2019-01-11T14:37:05.058Z,101254.88
2019-01-11T14:39:32.608Z,101245.81
2019-01-11T14:42:00.306Z,101246.83
2019-01-11T14:44:27.832Z,101235.78
2019-01-11T14:46:55.495Z,101239.63
2019-01-11T14:49:22.996Z,101229.44
2019-01-11T14:51:50.542Z,101240.91
2019-01-11T14:54:18.028Z,101244.64
2019-01-11T14:56:45.555Z,101239.54
2019-01-11T14:59:13.084Z,101241.77
2019-01-11T15:01:40.594Z,101244.50
2019-01-11T15:04:08.136Z,101242.86
2019-01-11T15:06:35.627Z,101248.45
2019-01-11T15:09:04.136Z,101245.87
2019-01-11T15:11:31.664Z,101233.94
2019-01-11T15:13:59.181Z,101237.05
2019-01-11T15:16:26.712Z,101228.48
2019-01-11T15:18:54.235Z,101232.58
2019-01-11T15:21:21.771Z,101230.58
2019-01-11T15:23:49.303Z,101236.77
2019-01-11T15:26:16.824Z,101231.94
2019-01-11T15:28:44.315Z,101229.56
2019-01-11T15:31:11.847Z,101229.27
2019-01-11T15:33:39.382Z,101227.91
2019-01-11T15:36:06.899Z,101230.53
2019-01-11T15:38:34.411Z,101224.92
2019-01-11T15:41:01.915Z,101224.92
2019-01-11T15:43:29.450Z,101223.42
2019-01-11T15:45:59.529Z,101222.75
2019-01-11T15:48:28.698Z,101209.05
2019-01-11T15:50:56.245Z,101194.19
2019-01-11T15:53:23.763Z,101208.56
2019-01-11T15:55:51.344Z,101215.00
2019-01-11T15:58:18.847Z,101210.06
2019-01-11T16:00:47.340Z,101225.56
2019-01-11T16:03:14.883Z,101224.34
2019-01-11T16:05:42.397Z,101227.56
2019-01-11T16:08:09.916Z,101224.20
2019-01-11T16:10:39.040Z,101222.34
2019-01-11T16:13:08.197Z,101208.17
2019-01-11T16:15:37.351Z,101218.25
2019-01-11T16:18:09.230Z,101215.63
2019-01-11T16:20:36.759Z,101207.25
2019-01-11T16:23:04.304Z,101202.87
2019-01-11T16:25:31.985Z,101198.42
2019-01-11T16:27:59.792Z,101195.31
2019-01-11T16:30:27.306Z,101198.72
2019-01-11T16:32:54.816Z,101202.57
2019-01-11T16:35:22.336Z,101209.19
2019-01-11T16:37:49.859Z,101204.66
2019-01-11T16:40:17.387Z,101204.72
2019-01-11T16:42:44.928Z,101195.70
2019-01-11T16:45:13.198Z,101202.81
2019-01-11T16:47:40.741Z,101197.06
2019-01-11T16:50:14.963Z,101195.98
2019-01-11T16:52:46.290Z,101206.03
2019-01-11T16:55:11.731Z,101201.16
2019-01-11T16:57:39.306Z,101206.62
2019-01-11T17:00:08.474Z,101207.89
2019-01-11T17:02:36.748Z,101206.37
2019-01-11T17:05:05.269Z,101201.45
2019-01-11T17:07:32.787Z,101203.36
2019-01-11T17:10:00.394Z,101212.19
2019-01-11T17:12:28.009Z,101206.23
2019-01-11T17:14:55.523Z,101211.05
2019-01-11T17:17:23.063Z,101208.12
2019-01-11T17:19:50.622Z,101206.23
2019-01-11T17:22:18.125Z,101210.27
2019-01-11T17:24:45.653Z,101208.33
2019-01-11T17:27:13.219Z,101198.98
2019-01-11T17:29:46.981Z,101190.80
2019-01-11T17:32:10.010Z,101195.47
2019-01-11T17:34:37.515Z,101201.36
2019-01-11T17:37:05.068Z,101200.92
2019-01-11T17:39:32.603Z,101199.56
2019-01-11T17:42:00.157Z,101198.54
2019-01-11T17:44:27.650Z,101200.43
2019-01-11T17:46:55.197Z,101205.89
2019-01-11T17:49:22.701Z,101206.23
2019-01-11T17:51:50.215Z,101213.70
2019-01-11T17:54:17.729Z,101211.11
2019-01-11T17:56:45.246Z,101211.34
2019-01-11T17:59:12.761Z,101205.59
2019-01-11T18:01:40.300Z,101207.02
2019-01-11T18:04:07.819Z,101211.98
2019-01-11T18:06:35.306Z,101217.88
2019-01-11T18:09:02.827Z,101221.04
2019-01-11T18:11:30.323Z,101220.52
2019-01-11T18:13:57.875Z,101214.22
2019-01-11T18:16:25.382Z,101221.39
2019-01-11T18:18:52.925Z,101222.55
2019-01-11T18:21:21.295Z,101225.98
2019-01-11T18:23:48.832Z,101220.17
2019-01-11T18:26:16.369Z,101225.19
2019-01-11T18:28:43.881Z,101220.81
2019-01-11T18:31:11.390Z,101214.19
2019-01-11T18:33:38.896Z,101221.23
2019-01-11T18:36:06.430Z,101220.41
2019-01-11T18:38:33.955Z,101213.98
2019-01-11T18:41:01.533Z,101212.34
2019-01-11T18:43:29.200Z,101215.57
2019-01-11T18:45:56.763Z,101215.84
2019-01-11T18:48:24.257Z,101211.85
2019-01-11T18:50:51.822Z,101212.52
2019-01-11T18:53:19.356Z,101202.38
2019-01-11T18:55:46.925Z,101208.91
2019-01-11T18:58:14.473Z,101208.28
2019-01-11T19:00:41.984Z,101204.77
2019-01-11T19:03:09.508Z,101205.03
2019-01-11T19:05:37.060Z,101213.20
2019-01-11T19:08:04.559Z,101211.53
2019-01-11T19:10:32.091Z,101204.23
2019-01-11T19:12:59.658Z,101208.67
2019-01-11T19:15:27.447Z,101204.23
2019-01-11T19:17:54.963Z,101211.20
2019-01-11T19:20:26.286Z,101211.70
2019-01-11T19:22:53.827Z,101218.57
2019-01-11T19:25:21.332Z,101222.56
2019-01-11T19:27:48.857Z,101221.72
2019-01-11T19:30:17.997Z,101219.73
2019-01-11T19:32:45.618Z,101218.78
2019-01-11T19:35:13.127Z,101217.23
2019-01-11T19:37:40.674Z,101221.13
2019-01-11T19:40:09.757Z,101220.70
2019-01-11T19:42:37.296Z,101218.87
2019-01-11T19:45:06.457Z,101217.58
2019-01-11T19:47:34.312Z,101205.23
2019-01-11T19:50:01.942Z,101215.57
2019-01-11T19:52:29.632Z,101215.59
2019-01-11T19:54:57.158Z,101220.58
2019-01-11T19:57:24.695Z,101211.98
2019-01-11T19:59:52.265Z,101218.11
2019-01-11T20:02:19.795Z,101221.52
2019-01-11T20:04:47.330Z,101221.78
2019-01-11T20:07:14.835Z,101216.78
2019-01-11T20:09:42.378Z,101220.99
2019-01-11T20:12:09.933Z,101210.71
2019-01-11T20:14:37.613Z,101205.12
2019-01-11T20:17:05.160Z,101211.03
2019-01-11T20:19:32.691Z,101201.77
2019-01-11T20:22:00.220Z,101214.40
2019-01-11T20:24:27.764Z,101209.83
2019-01-11T20:26:55.253Z,101213.77
2019-01-11T20:29:22.777Z,101212.09
2019-01-11T20:31:50.332Z,101215.94
2019-01-11T20:34:18.014Z,101217.61
2019-01-11T20:36:47.177Z,101213.24
2019-01-11T20:39:14.684Z,101217.58
2019-01-11T20:41:42.202Z,101209.61
2019-01-11T20:44:09.700Z,101216.87
2019-01-11T20:46:37.224Z,101216.34
2019-01-11T20:49:04.766Z,101217.81
2019-01-11T20:51:32.349Z,101221.16
2019-01-11T20:53:59.888Z,101218.16
2019-01-11T20:56:27.409Z,101215.94
2019-01-11T20:58:54.926Z,101215.02
2019-01-11T21:01:22.747Z,101217.70
2019-01-11T21:03:50.236Z,101220.14
2019-01-11T21:06:17.752Z,101214.93
2019-01-11T21:08:45.294Z,101216.50
2019-01-11T21:11:12.830Z,101214.50
2019-01-11T21:13:40.324Z,101217.95
2019-01-11T21:16:07.874Z,101219.38
2019-01-11T21:18:35.390Z,101217.00
2019-01-11T21:21:02.943Z,101224.05
2019-01-11T21:23:30.473Z,101215.73
2019-01-11T21:25:58.008Z,101218.80
2019-01-11T21:28:25.501Z,101219.38
2019-01-11T21:30:57.254Z,101212.42
2019-01-11T21:33:22.294Z,101219.23
2019-01-11T21:35:49.808Z,101221.33
2019-01-11T21:38:17.322Z,101220.17
2019-01-11T21:40:44.855Z,101220.75
2019-01-11T21:43:12.347Z,101219.73
2019-01-11T21:45:39.876Z,101226.94
2019-01-11T21:48:07.386Z,101221.69
2019-01-11T21:50:34.990Z,101213.49
2019-01-11T21:53:02.573Z,101224.61
2019-01-11T21:55:30.118Z,101224.99
2019-01-11T21:57:57.644Z,101222.12
2019-01-11T22:00:32.742Z,101227.77
2019-01-11T22:03:00.398Z,101226.91
2019-01-11T22:05:27.908Z,101230.22
2019-01-11T22:07:55.424Z,101226.70
2019-01-11T22:10:22.950Z,101224.47
2019-01-11T22:12:50.468Z,101232.94
2019-01-11T22:15:18.476Z,101230.36
2019-01-11T22:17:45.968Z,101223.83
2019-01-11T22:20:17.179Z,101226.64
2019-01-11T22:22:44.721Z,101228.79
2019-01-11T22:25:13.180Z,101226.27
2019-01-11T22:27:40.708Z,101226.27
2019-01-11T22:30:09.888Z,101230.30
2019-01-11T22:32:37.392Z,101230.59
2019-01-11T22:35:05.882Z,101231.58
2019-01-11T22:37:33.448Z,101231.38
2019-01-11T22:40:00.953Z,101228.70
2019-01-11T22:42:28.456Z,101230.21
2019-01-11T22:44:55.996Z,101232.39
2019-01-11T22:47:23.497Z,101232.88
2019-01-11T22:49:51.014Z,101236.89
2019-01-11T22:52:18.539Z,101234.89
2019-01-11T22:54:46.039Z,101230.30
2019-01-11T22:57:13.630Z,101236.32
2019-01-11T22:59:41.168Z,101233.30
2019-01-11T23:02:10.334Z,101241.28
2019-01-11T23:04:37.839Z,101234.56
2019-01-11T23:07:07.013Z,101240.35
2019-01-11T23:09:36.128Z,101235.88
2019-01-11T23:12:17.398Z,101243.08
2019-01-11T23:14:44.896Z,101242.70
2019-01-11T23:17:14.042Z,101244.31
2019-01-11T23:19:41.553Z,101242.59
2019-01-11T23:22:09.093Z,101237.77
2019-01-11T23:24:36.628Z,101231.45
2019-01-11T23:27:04.153Z,101234.91
2019-01-11T23:29:31.654Z,101236.41
2019-01-11T23:31:59.172Z,101236.80
2019-01-11T23:34:26.675Z,101230.52
2019-01-11T23:36:54.199Z,101236.84
2019-01-11T23:39:21.743Z,101238.34
2019-01-11T23:41:49.255Z,101237.86
2019-01-11T23:44:16.781Z,101238.14
2019-01-11T23:46:44.301Z,101233.31
2019-01-11T23:49:11.799Z,101233.53
2019-01-11T23:51:39.327Z,101225.48
2019-01-11T23:54:06.841Z,101228.88
2019-01-11T23:56:34.363Z,101223.05
2019-01-11T23:59:01.905Z,101230.25
